CheckWX is a tool to help pilots better visualize weather data.  It is not intended as a substitute for an official pre-flight weather briefing.

22:17:46 UTC

LFPV TAF
Villacoublay-Vélizy (BA 107) Air Base Airport
Villacoublay/Vélizy, France
TAF LFPV 152000Z 1521/1621 03008KT CAVOK

Jul-15@
21:00 UTC

Jul-15 @ 21:00 UTC

Jul-16@
21:00 UTC

Jul-16 @ 21:00 UTC

TAF LFPV 152000Z 1521/1621 03008KT CAVOK
Wind
  • 030° at 8 KTS
Conditions
No significant weather
Cloud Levels
  • No significant clouds